Bentley, Canada
Current Conditions -  °F | °C
As of 1:00 AM on Wednesday 26 Nov 2014 (Local Time) from CYQF Reporting Station
Light Snow Light Snow  
Wind Chill: 13°   Ceiling: 7000
Heat Index: 19°   Visibility: 12mi
Dew Point: 18°   Wind: 5mph
Humidity: 93%   Direction: 170°S
Pressure: 30.14"   Gusts: NA
Location:  52.47°N, 114.05°W
Report Text: CYQF 260800Z 17004KT 12SM -SN BKN070 OVC100 M07/M08 A3014 RMK AC5AC3 SLP260
Loading
Personal Weather Stations






























Interactive Weather Map New forecast layout! Learn more

10-Day Weather Forecast

Advertisements
Track Severe Weather on mobile